Portsmouth, Rhode Island
Current Conditions -  °F | °C
As of 4:53 PM on Tuesday 21 Oct 2014 (Local Time) from KUUU Reporting Station
Clear Clear  
Wind Chill: 17°   Ceiling: Unl
Heat Index: 17°   Visibility: 10mi
Dew Point: 14°   Wind: 6mph
Humidity: 81%   Direction: 100°E
Pressure: 29.88"   Gusts: NA
Location:  41.6°N, 71.25°W
Report Text: KUUU 212053Z AUTO 10005KT 10SM CLR 17/14 A2988 RMK AO2 SLP116 T01720139 58001
Loading
Personal Weather Stations






























Interactive Weather Map
Tropical Storm Tracking
New forecast layout! Learn more

10-Day Weather Forecast

Advertisements
Track Severe Weather on mobile